createdAt,value
2022-09-24T00:01:31.330Z,16.96
2022-09-24T00:04:00.549Z,16.98
2022-09-24T00:06:29.028Z,16.96
2022-09-24T00:08:56.919Z,16.88
2022-09-24T00:11:25.358Z,17.19
2022-09-24T00:13:53.197Z,17.29
2022-09-24T00:16:21.417Z,17.14
2022-09-24T00:18:48.727Z,16.98
2022-09-24T00:21:20.326Z,16.92
2022-09-24T00:23:54.757Z,17.01
2022-09-24T00:26:41.021Z,17.09
2022-09-24T00:29:09.068Z,17.10
2022-09-24T00:31:36.829Z,17.12
2022-09-24T00:34:04.526Z,17.11
2022-09-24T00:36:31.854Z,17.16
2022-09-24T00:38:59.719Z,17.25
2022-09-24T00:41:28.753Z,17.09
2022-09-24T00:43:56.138Z,17.08
2022-09-24T00:46:23.402Z,16.92
2022-09-24T00:48:52.404Z,16.86
2022-09-24T00:51:21.821Z,16.83
2022-09-24T00:53:50.965Z,16.80
2022-09-24T00:56:19.654Z,16.85
2022-09-24T00:58:48.305Z,16.82
2022-09-24T01:01:16.088Z,16.78
2022-09-24T01:03:43.817Z,16.74
2022-09-24T01:06:11.635Z,16.75
2022-09-24T01:08:40.047Z,16.69
2022-09-24T01:11:18.490Z,16.67
2022-09-24T01:14:04.866Z,16.65
2022-09-24T01:16:41.158Z,16.73
2022-09-24T01:19:09.315Z,16.68
2022-09-24T01:21:40.381Z,16.71
2022-09-24T01:24:37.207Z,16.76
2022-09-24T01:27:14.096Z,16.59
2022-09-24T01:29:43.474Z,16.52
2022-09-24T01:32:25.155Z,16.58
2022-09-24T01:34:57.310Z,16.74
2022-09-24T01:37:26.431Z,16.72
2022-09-24T01:39:55.605Z,16.72
2022-09-24T01:42:24.991Z,16.69
2022-09-24T01:44:52.474Z,16.55
2022-09-24T01:47:34.138Z,16.58
2022-09-24T01:50:03.089Z,16.57
2022-09-24T01:52:34.261Z,16.64
2022-09-24T01:55:03.057Z,16.72
2022-09-24T01:57:34.009Z,16.58
2022-09-24T02:00:09.813Z,16.52
2022-09-24T02:03:00.353Z,16.43
2022-09-24T02:05:33.657Z,16.44
2022-09-24T02:08:09.584Z,16.42
2022-09-24T02:10:42.384Z,16.49
2022-09-24T02:13:12.782Z,16.55
2022-09-24T02:15:42.081Z,16.62
2022-09-24T02:18:11.757Z,16.59
2022-09-24T02:20:39.947Z,16.58
2022-09-24T02:23:11.076Z,16.60
2022-09-24T02:25:42.830Z,16.60
2022-09-24T02:28:10.189Z,16.56
2022-09-24T02:30:45.685Z,16.57
2022-09-24T02:33:32.778Z,16.62
2022-09-24T02:36:00.280Z,16.53
2022-09-24T02:38:27.442Z,16.53
2022-09-24T02:40:55.350Z,16.54
2022-09-24T02:43:22.609Z,16.68
2022-09-24T02:45:49.857Z,16.64
2022-09-24T02:48:17.036Z,16.50
2022-09-24T02:50:44.624Z,16.42
2022-09-24T02:53:11.823Z,16.40
2022-09-24T02:55:38.995Z,16.38
2022-09-24T02:58:06.200Z,16.37
2022-09-24T03:00:35.376Z,16.34
2022-09-24T03:03:02.720Z,16.42
2022-09-24T03:05:29.989Z,16.48
2022-09-24T03:07:58.769Z,16.41
2022-09-24T03:10:26.241Z,16.41
2022-09-24T03:12:53.482Z,16.43
2022-09-24T03:15:20.632Z,16.41
2022-09-24T03:17:47.787Z,16.43
2022-09-24T03:20:14.972Z,16.40
2022-09-24T03:22:42.917Z,16.36
2022-09-24T03:25:11.124Z,16.42
2022-09-24T03:27:38.302Z,16.38
2022-09-24T03:30:24.545Z,16.50
2022-09-24T03:32:51.859Z,16.42
2022-09-24T03:35:19.737Z,16.41
2022-09-24T03:37:49.150Z,16.35
2022-09-24T03:40:16.781Z,16.34
2022-09-24T03:42:44.077Z,16.33
2022-09-24T03:45:11.530Z,16.33
2022-09-24T03:47:39.015Z,16.31
2022-09-24T03:50:06.438Z,16.27
2022-09-24T03:52:34.069Z,16.23
2022-09-24T03:55:01.292Z,16.22
2022-09-24T03:57:28.573Z,16.17
2022-09-24T03:59:55.751Z,16.15
2022-09-24T04:02:22.941Z,16.19
2022-09-24T04:04:50.561Z,16.15
2022-09-24T04:07:17.892Z,16.13
2022-09-24T04:09:45.077Z,16.10
2022-09-24T04:12:13.175Z,16.12
2022-09-24T04:14:40.357Z,16.13
2022-09-24T04:17:07.476Z,16.11
2022-09-24T04:19:34.688Z,16.14
2022-09-24T04:22:01.880Z,16.19
2022-09-24T04:24:29.022Z,16.21
2022-09-24T04:26:56.168Z,16.12
2022-09-24T04:29:23.291Z,16.13
2022-09-24T04:31:50.585Z,16.17
2022-09-24T04:34:18.125Z,16.27
2022-09-24T04:36:45.270Z,16.34
2022-09-24T04:39:12.769Z,16.35
2022-09-24T04:41:40.297Z,16.34
2022-09-24T04:44:07.759Z,16.29
2022-09-24T04:46:35.217Z,16.23
2022-09-24T04:49:02.491Z,16.16
2022-09-24T04:51:29.730Z,16.17
2022-09-24T04:53:56.993Z,16.21
2022-09-24T04:56:24.136Z,16.17
2022-09-24T04:58:51.814Z,16.24
2022-09-24T05:01:19.822Z,16.24
2022-09-24T05:03:47.062Z,16.20
2022-09-24T05:06:14.384Z,16.16
2022-09-24T05:08:42.097Z,16.16
2022-09-24T05:11:09.408Z,16.12
2022-09-24T05:13:36.596Z,16.12
2022-09-24T05:16:03.841Z,16.19
2022-09-24T05:18:31.084Z,16.19
2022-09-24T05:20:58.355Z,16.22
2022-09-24T05:23:25.555Z,16.25
2022-09-24T05:26:11.411Z,16.29
2022-09-24T05:28:39.626Z,16.28
2022-09-24T05:31:07.028Z,16.33
2022-09-24T05:33:38.949Z,16.35
2022-09-24T05:36:06.460Z,16.40
2022-09-24T05:38:33.687Z,16.58
2022-09-24T05:41:01.390Z,16.70
2022-09-24T05:43:28.772Z,16.70
2022-09-24T05:45:58.846Z,16.68
2022-09-24T05:48:26.295Z,16.55
2022-09-24T05:50:55.542Z,16.52
2022-09-24T05:53:25.763Z,16.51
2022-09-24T05:55:53.419Z,16.56
2022-09-24T05:58:20.730Z,16.54
2022-09-24T06:00:47.900Z,16.48
2022-09-24T06:03:16.803Z,16.51
2022-09-24T06:05:46.153Z,16.57
2022-09-24T06:08:15.318Z,16.63
2022-09-24T06:10:43.031Z,16.61
2022-09-24T06:13:11.608Z,16.56
2022-09-24T06:15:38.983Z,16.79
2022-09-24T06:18:06.166Z,16.87
2022-09-24T06:20:33.686Z,16.83
2022-09-24T06:23:00.906Z,16.84
2022-09-24T06:25:28.775Z,16.86
2022-09-24T06:28:00.307Z,17.07
2022-09-24T06:30:28.316Z,17.14
2022-09-24T06:32:55.587Z,17.09
2022-09-24T06:35:22.997Z,17.08
2022-09-24T06:37:52.824Z,17.03
2022-09-24T06:40:20.092Z,17.00
2022-09-24T06:42:50.940Z,17.05
2022-09-24T06:45:18.268Z,17.05
2022-09-24T06:47:51.496Z,17.09
2022-09-24T06:50:18.647Z,17.22
2022-09-24T06:52:45.772Z,17.30
2022-09-24T06:55:13.002Z,17.37
2022-09-24T06:57:40.279Z,17.37
2022-09-24T07:00:08.545Z,17.41
2022-09-24T07:02:36.539Z,17.43
2022-09-24T07:05:04.014Z,17.39
2022-09-24T07:07:33.274Z,17.41
2022-09-24T07:10:02.026Z,17.49
2022-09-24T07:12:30.029Z,17.46
2022-09-24T07:14:57.354Z,17.53
2022-09-24T07:17:26.185Z,17.51
2022-09-24T07:19:56.134Z,17.46
2022-09-24T07:22:23.337Z,17.54
2022-09-24T07:24:50.858Z,17.52
2022-09-24T07:27:19.482Z,17.56
2022-09-24T07:29:49.828Z,17.55
2022-09-24T07:32:19.882Z,17.52
2022-09-24T07:34:47.185Z,17.54
2022-09-24T07:37:14.680Z,17.66
2022-09-24T07:39:41.910Z,17.67
2022-09-24T07:42:09.117Z,17.62
2022-09-24T07:44:36.628Z,17.64
2022-09-24T07:47:04.191Z,17.68
2022-09-24T07:49:32.735Z,17.69
2022-09-24T07:52:00.264Z,17.70
2022-09-24T07:54:27.497Z,17.70
2022-09-24T07:56:54.682Z,17.78
2022-09-24T07:59:21.998Z,17.70
2022-09-24T08:01:49.302Z,17.81
2022-09-24T08:04:18.329Z,17.88
2022-09-24T08:06:48.539Z,17.80
2022-09-24T08:09:16.966Z,17.80
2022-09-24T08:11:44.813Z,17.80
2022-09-24T08:14:12.188Z,17.80
2022-09-24T08:16:43.408Z,17.81
2022-09-24T08:19:14.124Z,17.82
2022-09-24T08:21:41.454Z,17.86
2022-09-24T08:24:08.785Z,17.95
2022-09-24T08:26:36.083Z,17.87
2022-09-24T08:29:03.389Z,17.88
2022-09-24T08:31:31.445Z,17.82
2022-09-24T08:33:59.026Z,17.88
2022-09-24T08:36:28.031Z,17.95
2022-09-24T08:38:55.503Z,17.98
2022-09-24T08:41:38.366Z,18.03
2022-09-24T08:44:10.210Z,18.12
2022-09-24T08:47:02.459Z,18.05
2022-09-24T08:49:35.344Z,18.02
2022-09-24T08:52:02.591Z,18.07
2022-09-24T08:54:31.696Z,18.01
2022-09-24T08:57:01.295Z,18.05
2022-09-24T08:59:37.727Z,18.09
2022-09-24T09:02:19.532Z,18.14
2022-09-24T09:04:49.822Z,18.18
2022-09-24T09:07:31.217Z,18.18
2022-09-24T09:09:58.376Z,18.21
2022-09-24T09:12:27.921Z,18.22
2022-09-24T09:14:57.869Z,18.22
2022-09-24T09:17:29.812Z,18.18
2022-09-24T09:19:58.130Z,18.20
2022-09-24T09:22:28.135Z,18.15
2022-09-24T09:25:03.660Z,18.14
2022-09-24T09:27:31.501Z,18.18
2022-09-24T09:30:03.132Z,18.21
2022-09-24T09:32:36.993Z,18.19
2022-09-24T09:35:22.949Z,18.16
2022-09-24T09:38:10.340Z,18.10
2022-09-24T09:40:49.752Z,18.16
2022-09-24T09:43:17.881Z,18.16
2022-09-24T09:45:52.122Z,18.13
2022-09-24T09:48:21.430Z,18.16
2022-09-24T09:50:50.594Z,18.18
2022-09-24T09:53:19.348Z,18.20
2022-09-24T09:55:51.967Z,18.16
2022-09-24T09:58:22.428Z,18.17
2022-09-24T10:00:50.373Z,18.19
2022-09-24T10:03:26.185Z,18.12
2022-09-24T10:05:57.453Z,18.06
2022-09-24T10:08:25.288Z,18.04
2022-09-24T10:10:55.401Z,18.06
2022-09-24T10:13:22.892Z,18.09
2022-09-24T10:16:04.473Z,18.16
2022-09-24T10:18:34.051Z,18.19
2022-09-24T10:21:05.171Z,18.21
2022-09-24T10:23:52.624Z,18.14
2022-09-24T10:26:19.877Z,18.23
2022-09-24T10:29:07.540Z,18.26
2022-09-24T10:31:35.940Z,18.28
2022-09-24T10:34:05.749Z,18.25
2022-09-24T10:36:33.105Z,18.22
2022-09-24T10:39:04.767Z,18.27
2022-09-24T10:41:32.032Z,18.20
2022-09-24T10:44:02.834Z,18.25
2022-09-24T10:46:36.284Z,18.23
2022-09-24T10:49:06.566Z,18.23
2022-09-24T10:51:44.485Z,18.20
2022-09-24T10:54:20.947Z,18.25
2022-09-24T10:56:51.711Z,18.31
2022-09-24T10:59:18.910Z,18.34
2022-09-24T11:01:59.349Z,18.34
2022-09-24T11:04:30.526Z,18.38
2022-09-24T11:07:17.990Z,18.35
2022-09-24T11:09:45.233Z,18.30
2022-09-24T11:12:14.234Z,18.29
2022-09-24T11:14:47.166Z,18.31
2022-09-24T11:17:20.556Z,18.37
2022-09-24T11:19:58.661Z,18.34
2022-09-24T11:22:25.864Z,18.44
2022-09-24T11:25:11.624Z,18.46
2022-09-24T11:27:41.587Z,18.55
2022-09-24T11:30:17.915Z,18.54
2022-09-24T11:33:03.876Z,18.51
2022-09-24T11:35:31.110Z,18.52
2022-09-24T11:37:58.294Z,18.55
2022-09-24T11:40:30.564Z,18.54
2022-09-24T11:42:57.952Z,18.57
2022-09-24T11:45:31.253Z,18.54
2022-09-24T11:48:16.958Z,18.50
2022-09-24T11:50:47.733Z,18.55
2022-09-24T11:53:34.059Z,18.49
2022-09-24T11:56:12.319Z,18.45
2022-09-24T11:58:43.972Z,18.45
2022-09-24T12:01:15.549Z,18.47
2022-09-24T12:03:46.466Z,18.38
2022-09-24T12:06:18.298Z,18.39
2022-09-24T12:08:52.384Z,18.45
2022-09-24T12:11:24.740Z,18.52
2022-09-24T12:14:18.344Z,18.40
2022-09-24T12:16:47.727Z,18.44
2022-09-24T12:19:21.300Z,18.53
2022-09-24T12:21:50.489Z,18.81
2022-09-24T12:24:23.903Z,18.79
2022-09-24T12:26:51.731Z,18.72
2022-09-24T12:29:56.571Z,18.76
2022-09-24T12:32:56.680Z,18.77
2022-09-24T12:35:29.833Z,18.67
2022-09-24T12:38:04.324Z,18.63
2022-09-24T12:40:43.794Z,18.65
2022-09-24T12:43:18.344Z,18.42
2022-09-24T12:45:46.108Z,18.37
2022-09-24T12:48:15.427Z,18.38
2022-09-24T12:50:45.996Z,18.39
2022-09-24T12:53:24.970Z,18.44
2022-09-24T12:55:52.709Z,18.43
2022-09-24T12:58:28.634Z,18.49
2022-09-24T13:01:06.637Z,18.56
2022-09-24T13:03:35.897Z,18.54
2022-09-24T13:06:04.838Z,18.37
2022-09-24T13:08:41.251Z,18.39
2022-09-24T13:11:29.825Z,18.40
2022-09-24T13:14:02.497Z,18.42
2022-09-24T13:16:29.837Z,18.55
2022-09-24T13:18:59.139Z,18.51
2022-09-24T13:21:27.378Z,18.32
2022-09-24T13:23:55.386Z,18.12
2022-09-24T13:26:25.369Z,18.08
2022-09-24T13:28:55.402Z,17.86
2022-09-24T13:31:22.725Z,17.99
2022-09-24T13:33:52.832Z,18.18
2022-09-24T13:36:26.754Z,18.31
2022-09-24T13:38:57.405Z,18.26
2022-09-24T13:41:29.179Z,18.21
2022-09-24T13:44:00.337Z,18.26
2022-09-24T13:46:28.287Z,18.23
2022-09-24T13:48:58.864Z,18.27
2022-09-24T13:51:28.640Z,18.27
2022-09-24T13:53:58.699Z,18.37
2022-09-24T13:56:26.295Z,18.32
2022-09-24T13:59:03.114Z,18.24
2022-09-24T14:01:35.144Z,18.19
2022-09-24T14:04:20.739Z,18.18
2022-09-24T14:06:52.819Z,18.20
2022-09-24T14:09:23.027Z,18.28
2022-09-24T14:11:52.022Z,18.17
2022-09-24T14:14:21.110Z,18.20
2022-09-24T14:16:48.578Z,18.18
2022-09-24T14:19:16.216Z,18.14
2022-09-24T14:21:52.222Z,18.20
2022-09-24T14:24:23.040Z,18.21
2022-09-24T14:27:01.785Z,18.13
2022-09-24T14:29:33.175Z,18.09
2022-09-24T14:32:02.710Z,18.13
2022-09-24T14:34:35.014Z,18.08
2022-09-24T14:37:10.791Z,18.08
2022-09-24T14:39:42.803Z,18.06
2022-09-24T14:42:12.861Z,18.01
2022-09-24T14:44:44.490Z,18.05
2022-09-24T14:47:25.438Z,18.03
2022-09-24T14:49:52.637Z,18.07
2022-09-24T14:52:28.113Z,18.12
2022-09-24T14:55:14.308Z,18.18
2022-09-24T14:57:46.082Z,18.25
2022-09-24T15:00:19.750Z,18.17
2022-09-24T15:03:12.938Z,18.19
2022-09-24T15:05:40.455Z,18.19
2022-09-24T15:08:39.981Z,18.06
2022-09-24T15:11:07.245Z,18.10
2022-09-24T15:13:35.739Z,18.10
2022-09-24T15:16:06.173Z,18.09
2022-09-24T15:18:35.470Z,18.15
2022-09-24T15:21:06.281Z,18.10
2022-09-24T15:23:33.626Z,18.12
2022-09-24T15:26:00.844Z,18.12
2022-09-24T15:28:29.558Z,18.00
2022-09-24T15:30:57.303Z,17.95
2022-09-24T15:33:24.565Z,18.05
2022-09-24T15:35:52.454Z,17.94
2022-09-24T15:38:20.059Z,17.94
2022-09-24T15:40:51.370Z,17.87
2022-09-24T15:43:23.225Z,17.79
2022-09-24T15:45:51.043Z,17.77
2022-09-24T15:48:18.591Z,17.91
2022-09-24T15:50:46.768Z,17.86
2022-09-24T15:53:24.802Z,17.77
2022-09-24T15:55:56.521Z,17.68
2022-09-24T15:58:24.101Z,17.70
2022-09-24T16:00:52.342Z,17.63
2022-09-24T16:03:27.864Z,17.63
2022-09-24T16:05:56.339Z,17.64
2022-09-24T16:08:23.597Z,17.65
2022-09-24T16:10:51.033Z,17.65
2022-09-24T16:13:19.113Z,17.60
2022-09-24T16:15:46.440Z,17.67
2022-09-24T16:18:15.085Z,17.62
2022-09-24T16:20:43.124Z,17.60
2022-09-24T16:23:17.415Z,17.63
2022-09-24T16:25:57.044Z,17.69
2022-09-24T16:28:24.808Z,17.65
2022-09-24T16:30:52.083Z,17.50
2022-09-24T16:33:19.424Z,17.53
2022-09-24T16:35:46.646Z,17.48
2022-09-24T16:38:15.619Z,17.48
2022-09-24T16:40:46.416Z,17.34
2022-09-24T16:43:13.687Z,17.24
2022-09-24T16:45:40.898Z,17.21
2022-09-24T16:48:08.048Z,17.28
2022-09-24T16:50:35.352Z,17.34
2022-09-24T16:53:02.621Z,17.39
2022-09-24T16:55:29.817Z,17.36
2022-09-24T16:57:57.059Z,17.28
2022-09-24T17:00:24.208Z,17.26
2022-09-24T17:02:51.508Z,17.32
2022-09-24T17:05:18.824Z,17.32
2022-09-24T17:07:46.061Z,17.20
2022-09-24T17:10:13.494Z,17.15
2022-09-24T17:12:44.819Z,17.16
2022-09-24T17:15:14.086Z,17.15
2022-09-24T17:17:49.195Z,17.12
2022-09-24T17:20:18.022Z,17.08
2022-09-24T17:22:48.157Z,17.24
2022-09-24T17:25:15.519Z,17.19
2022-09-24T17:27:42.710Z,17.21
2022-09-24T17:30:10.960Z,17.20
2022-09-24T17:32:38.214Z,17.21
2022-09-24T17:35:06.090Z,17.26
2022-09-24T17:37:33.800Z,17.36
2022-09-24T17:40:01.076Z,17.33
2022-09-24T17:42:28.311Z,17.31
2022-09-24T17:44:55.534Z,17.33
2022-09-24T17:47:22.727Z,17.29
2022-09-24T17:49:49.939Z,17.38
2022-09-24T17:52:17.147Z,17.24
2022-09-24T17:54:44.811Z,17.15
2022-09-24T17:57:12.014Z,17.15
2022-09-24T17:59:39.954Z,17.08
2022-09-24T18:02:07.381Z,17.04
2022-09-24T18:04:38.355Z,16.98
2022-09-24T18:07:05.692Z,16.94
2022-09-24T18:09:33.006Z,16.90
2022-09-24T18:12:00.349Z,16.88
2022-09-24T18:14:27.642Z,16.90
2022-09-24T18:16:54.866Z,16.92
2022-09-24T18:19:22.171Z,16.90
2022-09-24T18:21:49.776Z,16.93
2022-09-24T18:24:17.497Z,16.89
2022-09-24T18:26:46.551Z,16.81
2022-09-24T18:29:16.476Z,16.80
2022-09-24T18:31:43.885Z,16.71
2022-09-24T18:34:13.184Z,16.58
2022-09-24T18:36:41.461Z,16.55
2022-09-24T18:39:12.124Z,16.49
2022-09-24T18:41:39.859Z,16.61
2022-09-24T18:44:07.213Z,16.65
2022-09-24T18:46:35.125Z,16.64
2022-09-24T18:49:02.751Z,16.73
2022-09-24T18:51:31.275Z,16.76
2022-09-24T18:54:00.181Z,16.62
2022-09-24T18:56:27.843Z,16.52
2022-09-24T18:58:59.056Z,16.49
2022-09-24T19:01:27.149Z,16.57
2022-09-24T19:03:55.406Z,16.74
2022-09-24T19:06:22.843Z,16.77
2022-09-24T19:08:50.101Z,16.72
2022-09-24T19:11:17.520Z,16.60
2022-09-24T19:13:49.286Z,16.58
2022-09-24T19:16:17.263Z,16.64
2022-09-24T19:18:44.663Z,16.48
2022-09-24T19:21:14.080Z,16.27
2022-09-24T19:23:46.055Z,16.17
2022-09-24T19:26:14.842Z,16.24
2022-09-24T19:28:42.625Z,16.33
2022-09-24T19:31:14.678Z,16.37
2022-09-24T19:33:42.105Z,16.26
2022-09-24T19:36:09.463Z,16.25
2022-09-24T19:38:37.294Z,16.27
2022-09-24T19:41:06.221Z,16.24
2022-09-24T19:43:34.336Z,16.35
2022-09-24T19:46:03.075Z,16.43
2022-09-24T19:48:31.144Z,16.39
2022-09-24T19:51:03.518Z,16.37
2022-09-24T19:53:33.487Z,16.26
2022-09-24T19:56:00.886Z,16.18
2022-09-24T19:58:28.181Z,16.16
2022-09-24T20:00:59.975Z,16.10
2022-09-24T20:03:27.249Z,16.11
2022-09-24T20:05:54.498Z,16.14
2022-09-24T20:08:23.468Z,16.26
2022-09-24T20:10:50.746Z,16.24
2022-09-24T20:13:18.600Z,16.24
2022-09-24T20:15:45.931Z,16.27
2022-09-24T20:18:13.177Z,16.21
2022-09-24T20:20:40.421Z,16.12
2022-09-24T20:23:08.801Z,16.08
2022-09-24T20:25:54.690Z,16.08
2022-09-24T20:28:21.865Z,16.09
2022-09-24T20:30:49.137Z,16.07
2022-09-24T20:33:20.240Z,16.11
2022-09-24T20:35:47.778Z,16.08
2022-09-24T20:38:14.958Z,16.09
2022-09-24T20:40:43.243Z,16.06
2022-09-24T20:43:10.630Z,15.96
2022-09-24T20:45:40.084Z,15.84
2022-09-24T20:48:07.398Z,15.84
2022-09-24T20:50:34.882Z,15.90
2022-09-24T20:53:02.050Z,15.92
2022-09-24T20:55:30.011Z,15.95
2022-09-24T20:57:57.263Z,15.96
2022-09-24T21:00:25.330Z,15.93
2022-09-24T21:02:52.777Z,15.90
2022-09-24T21:05:20.049Z,15.89
2022-09-24T21:07:47.225Z,15.89
2022-09-24T21:10:14.436Z,15.70
2022-09-24T21:12:41.712Z,15.60
2022-09-24T21:26:45.149Z,15.97
2022-09-24T21:29:12.975Z,15.90
2022-09-24T21:31:40.143Z,15.85
2022-09-24T21:34:07.654Z,15.84
2022-09-24T21:36:44.078Z,15.78
2022-09-24T21:39:26.515Z,15.80
2022-09-24T21:41:57.223Z,15.78
2022-09-24T21:44:24.270Z,15.80
2022-09-24T21:46:52.402Z,15.75
2022-09-24T21:49:20.280Z,15.76
2022-09-24T21:51:47.462Z,15.83
2022-09-24T21:54:17.099Z,15.78
2022-09-24T21:56:45.240Z,15.70
2022-09-24T21:59:31.436Z,15.80
2022-09-24T22:01:58.940Z,15.82
2022-09-24T22:04:27.632Z,15.93
2022-09-24T22:06:55.064Z,15.92
2022-09-24T22:09:22.360Z,15.97
2022-09-24T22:11:51.553Z,15.92
2022-09-24T22:14:18.648Z,15.85
2022-09-24T22:16:45.820Z,15.90
2022-09-24T22:19:12.951Z,15.98
2022-09-24T22:21:40.578Z,15.98
2022-09-24T22:24:07.786Z,15.93
2022-09-24T22:26:34.937Z,15.85
2022-09-24T22:29:03.875Z,15.80
2022-09-24T22:31:31.065Z,15.77
2022-09-24T22:34:17.013Z,15.76
2022-09-24T22:36:44.260Z,15.75
2022-09-24T22:39:11.334Z,15.74
2022-09-24T22:41:40.006Z,15.72
2022-09-24T22:44:07.372Z,15.69
2022-09-24T22:46:36.210Z,15.72
2022-09-24T22:49:04.556Z,15.69
2022-09-24T22:51:32.001Z,15.68
2022-09-24T22:54:00.205Z,15.61
2022-09-24T22:56:27.942Z,15.62
2022-09-24T22:58:56.446Z,15.64
2022-09-24T23:01:25.015Z,15.59
2022-09-24T23:03:52.927Z,15.59
2022-09-24T23:06:20.968Z,15.57
2022-09-24T23:08:48.753Z,15.59
2022-09-24T23:11:17.333Z,15.58
2022-09-24T23:13:45.909Z,15.56
2022-09-24T23:16:17.570Z,15.56
2022-09-24T23:18:46.017Z,15.57
2022-09-24T23:21:14.505Z,15.58
2022-09-24T23:23:42.306Z,15.57
2022-09-24T23:26:16.412Z,15.54
2022-09-24T23:28:44.988Z,15.53
2022-09-24T23:31:13.269Z,15.53
2022-09-24T23:33:42.418Z,15.49
2022-09-24T23:36:10.731Z,15.51
2022-09-24T23:38:38.361Z,15.60
2022-09-24T23:41:05.978Z,15.60
2022-09-24T23:43:33.344Z,15.58
2022-09-24T23:46:01.220Z,15.66
2022-09-24T23:48:29.026Z,15.63
2022-09-24T23:50:57.154Z,15.58
2022-09-24T23:53:24.999Z,15.56
2022-09-24T23:55:53.173Z,15.48
2022-09-24T23:58:20.939Z,15.48
